sensor_id;sensor_type;location;lat;lon;timestamp;temperature;humidity
47022;DHT22;32779;52.264;6.154;2023-04-03T00:01:32;3.50;99.90
47022;DHT22;32779;52.264;6.154;2023-04-03T00:03:58;3.50;99.90
47022;DHT22;32779;52.264;6.154;2023-04-03T00:06:24;3.40;99.90
47022;DHT22;32779;52.264;6.154;2023-04-03T00:08:50;3.40;99.90
47022;DHT22;32779;52.264;6.154;2023-04-03T00:11:17;3.40;99.90
47022;DHT22;32779;52.264;6.154;2023-04-03T00:13:43;3.40;99.90
47022;DHT22;32779;52.264;6.154;2023-04-03T00:16:10;3.30;99.90
47022;DHT22;32779;52.264;6.154;2023-04-03T00:18:37;3.30;99.90
47022;DHT22;32779;52.264;6.154;2023-04-03T00:21:03;3.30;99.90
47022;DHT22;32779;52.264;6.154;2023-04-03T00:23:29;3.30;99.90
47022;DHT22;32779;52.264;6.154;2023-04-03T00:25:55;3.20;99.90
47022;DHT22;32779;52.264;6.154;2023-04-03T00:28:21;3.20;99.90
47022;DHT22;32779;52.264;6.154;2023-04-03T00:30:48;3.20;99.90
47022;DHT22;32779;52.264;6.154;2023-04-03T00:33:14;3.20;99.90
47022;DHT22;32779;52.264;6.154;2023-04-03T00:35:40;3.10;99.90
47022;DHT22;32779;52.264;6.154;2023-04-03T00:38:06;3.10;99.90
47022;DHT22;32779;52.264;6.154;2023-04-03T00:40:39;3.10;99.90
47022;DHT22;32779;52.264;6.154;2023-04-03T00:45:43;3.10;99.90
47022;DHT22;32779;52.264;6.154;2023-04-03T00:48:12;3.00;99.90
47022;DHT22;32779;52.264;6.154;2023-04-03T00:50:41;3.00;99.90
47022;DHT22;32779;52.264;6.154;2023-04-03T00:53:12;3.00;99.90
47022;DHT22;32779;52.264;6.154;2023-04-03T00:55:39;3.00;99.90
47022;DHT22;32779;52.264;6.154;2023-04-03T00:58:04;3.00;99.90
47022;DHT22;32779;52.264;6.154;2023-04-03T01:00:32;2.90;99.90
47022;DHT22;32779;52.264;6.154;2023-04-03T01:02:57;2.90;99.90
47022;DHT22;32779;52.264;6.154;2023-04-03T01:05:23;2.90;99.90
47022;DHT22;32779;52.264;6.154;2023-04-03T01:07:49;2.90;99.90
47022;DHT22;32779;52.264;6.154;2023-04-03T01:10:17;2.80;99.90
47022;DHT22;32779;52.264;6.154;2023-04-03T01:12:46;2.90;99.90
47022;DHT22;32779;52.264;6.154;2023-04-03T01:15:25;2.80;99.90
47022;DHT22;32779;52.264;6.154;2023-04-03T01:17:53;2.80;99.90
47022;DHT22;32779;52.264;6.154;2023-04-03T01:23:18;2.80;99.90
47022;DHT22;32779;52.264;6.154;2023-04-03T01:25:54;2.80;99.90
47022;DHT22;32779;52.264;6.154;2023-04-03T01:28:26;2.70;99.90
47022;DHT22;32779;52.264;6.154;2023-04-03T01:31:25;2.70;99.90
47022;DHT22;32779;52.264;6.154;2023-04-03T01:33:51;2.70;99.90
47022;DHT22;32779;52.264;6.154;2023-04-03T01:36:24;2.70;99.90
47022;DHT22;32779;52.264;6.154;2023-04-03T01:38:50;2.70;99.90
47022;DHT22;32779;52.264;6.154;2023-04-03T01:41:16;2.60;99.90
47022;DHT22;32779;52.264;6.154;2023-04-03T01:43:42;2.60;99.90
47022;DHT22;32779;52.264;6.154;2023-04-03T01:46:08;2.60;99.90
47022;DHT22;32779;52.264;6.154;2023-04-03T01:48:33;2.60;99.90
47022;DHT22;32779;52.264;6.154;2023-04-03T01:50:59;2.60;99.90
47022;DHT22;32779;52.264;6.154;2023-04-03T01:53:25;2.60;99.90
47022;DHT22;32779;52.264;6.154;2023-04-03T01:55:50;2.50;99.90
47022;DHT22;32779;52.264;6.154;2023-04-03T01:58:16;2.50;99.90
47022;DHT22;32779;52.264;6.154;2023-04-03T02:00:41;2.50;99.90
47022;DHT22;32779;52.264;6.154;2023-04-03T02:03:07;2.50;99.90
47022;DHT22;32779;52.264;6.154;2023-04-03T02:05:33;2.50;99.90
47022;DHT22;32779;52.264;6.154;2023-04-03T02:07:58;2.50;99.90
47022;DHT22;32779;52.264;6.154;2023-04-03T02:10:24;2.50;99.90
47022;DHT22;32779;52.264;6.154;2023-04-03T02:12:50;2.50;99.90
47022;DHT22;32779;52.264;6.154;2023-04-03T02:15:16;2.40;99.90
47022;DHT22;32779;52.264;6.154;2023-04-03T02:17:42;2.40;99.90
47022;DHT22;32779;52.264;6.154;2023-04-03T02:20:08;2.40;99.90
47022;DHT22;32779;52.264;6.154;2023-04-03T02:22:34;2.40;99.90
47022;DHT22;32779;52.264;6.154;2023-04-03T02:24:59;2.40;99.90
47022;DHT22;32779;52.264;6.154;2023-04-03T02:27:26;2.40;99.90
47022;DHT22;32779;52.264;6.154;2023-04-03T02:29:52;2.40;99.90
47022;DHT22;32779;52.264;6.154;2023-04-03T02:32:17;2.30;99.90
47022;DHT22;32779;52.264;6.154;2023-04-03T02:34:43;2.30;99.90
47022;DHT22;32779;52.264;6.154;2023-04-03T02:37:08;2.30;99.90
47022;DHT22;32779;52.264;6.154;2023-04-03T02:39:34;2.30;99.90
47022;DHT22;32779;52.264;6.154;2023-04-03T02:42:00;2.30;99.90
47022;DHT22;32779;52.264;6.154;2023-04-03T02:44:26;2.30;99.90
47022;DHT22;32779;52.264;6.154;2023-04-03T02:46:52;2.30;99.90
47022;DHT22;32779;52.264;6.154;2023-04-03T02:49:17;2.30;99.90
47022;DHT22;32779;52.264;6.154;2023-04-03T02:51:43;2.20;99.90
47022;DHT22;32779;52.264;6.154;2023-04-03T02:54:08;2.20;99.90
47022;DHT22;32779;52.264;6.154;2023-04-03T02:56:34;2.20;99.90
47022;DHT22;32779;52.264;6.154;2023-04-03T02:59:00;2.20;99.90
47022;DHT22;32779;52.264;6.154;2023-04-03T03:01:25;2.20;99.90
47022;DHT22;32779;52.264;6.154;2023-04-03T03:03:54;2.20;99.90
47022;DHT22;32779;52.264;6.154;2023-04-03T03:06:20;2.20;99.90
47022;DHT22;32779;52.264;6.154;2023-04-03T03:08:45;2.20;99.90
47022;DHT22;32779;52.264;6.154;2023-04-03T03:11:11;2.10;99.90
47022;DHT22;32779;52.264;6.154;2023-04-03T03:13:37;2.10;99.90
47022;DHT22;32779;52.264;6.154;2023-04-03T03:16:03;2.10;99.90
47022;DHT22;32779;52.264;6.154;2023-04-03T03:18:29;2.10;99.90
47022;DHT22;32779;52.264;6.154;2023-04-03T03:20:57;2.10;99.90
47022;DHT22;32779;52.264;6.154;2023-04-03T03:23:24;2.10;99.90
47022;DHT22;32779;52.264;6.154;2023-04-03T03:25:58;2.10;99.90
47022;DHT22;32779;52.264;6.154;2023-04-03T03:28:24;2.00;99.90
47022;DHT22;32779;52.264;6.154;2023-04-03T03:30:50;2.00;99.90
47022;DHT22;32779;52.264;6.154;2023-04-03T03:33:16;2.00;99.90
47022;DHT22;32779;52.264;6.154;2023-04-03T03:35:42;2.00;99.90
47022;DHT22;32779;52.264;6.154;2023-04-03T03:38:08;1.90;99.90
47022;DHT22;32779;52.264;6.154;2023-04-03T03:40:34;1.90;99.90
47022;DHT22;32779;52.264;6.154;2023-04-03T03:42:59;1.90;99.90
47022;DHT22;32779;52.264;6.154;2023-04-03T03:45:25;1.90;99.90
47022;DHT22;32779;52.264;6.154;2023-04-03T03:47:51;1.80;99.90
47022;DHT22;32779;52.264;6.154;2023-04-03T03:50:16;1.80;99.90
47022;DHT22;32779;52.264;6.154;2023-04-03T03:52:42;1.80;99.90
47022;DHT22;32779;52.264;6.154;2023-04-03T03:55:07;1.70;99.90
47022;DHT22;32779;52.264;6.154;2023-04-03T03:57:33;1.70;99.90
47022;DHT22;32779;52.264;6.154;2023-04-03T03:59:59;1.70;99.90
47022;DHT22;32779;52.264;6.154;2023-04-03T04:02:25;1.70;99.90
47022;DHT22;32779;52.264;6.154;2023-04-03T04:04:50;1.70;99.90
47022;DHT22;32779;52.264;6.154;2023-04-03T04:07:16;1.60;99.90
47022;DHT22;32779;52.264;6.154;2023-04-03T04:09:42;1.60;99.90
47022;DHT22;32779;52.264;6.154;2023-04-03T04:12:07;1.50;99.90
47022;DHT22;32779;52.264;6.154;2023-04-03T04:14:33;1.60;99.90
47022;DHT22;32779;52.264;6.154;2023-04-03T04:16:58;1.50;99.90
47022;DHT22;32779;52.264;6.154;2023-04-03T04:19:24;1.50;99.90
47022;DHT22;32779;52.264;6.154;2023-04-03T04:21:50;1.50;99.90
47022;DHT22;32779;52.264;6.154;2023-04-03T04:24:15;1.40;99.90
47022;DHT22;32779;52.264;6.154;2023-04-03T04:26:41;1.40;99.90
47022;DHT22;32779;52.264;6.154;2023-04-03T04:29:09;1.40;99.90
47022;DHT22;32779;52.264;6.154;2023-04-03T04:31:35;1.40;99.90
47022;DHT22;32779;52.264;6.154;2023-04-03T04:34:00;1.40;99.90
47022;DHT22;32779;52.264;6.154;2023-04-03T04:36:26;1.40;99.90
47022;DHT22;32779;52.264;6.154;2023-04-03T04:38:52;1.40;99.90
47022;DHT22;32779;52.264;6.154;2023-04-03T04:41:20;1.30;99.90
47022;DHT22;32779;52.264;6.154;2023-04-03T04:43:48;1.30;99.90
47022;DHT22;32779;52.264;6.154;2023-04-03T04:46:14;1.30;99.90
47022;DHT22;32779;52.264;6.154;2023-04-03T04:48:40;1.30;99.90
47022;DHT22;32779;52.264;6.154;2023-04-03T04:51:06;1.20;99.90
47022;DHT22;32779;52.264;6.154;2023-04-03T04:53:32;1.20;99.90
47022;DHT22;32779;52.264;6.154;2023-04-03T04:55:58;1.20;99.90
47022;DHT22;32779;52.264;6.154;2023-04-03T04:58:24;1.10;99.90
47022;DHT22;32779;52.264;6.154;2023-04-03T05:01:04;1.10;99.90
47022;DHT22;32779;52.264;6.154;2023-04-03T05:03:31;1.10;99.90
47022;DHT22;32779;52.264;6.154;2023-04-03T05:05:56;1.10;99.90
47022;DHT22;32779;52.264;6.154;2023-04-03T05:08:23;1.00;99.90
47022;DHT22;32779;52.264;6.154;2023-04-03T05:10:48;1.00;99.90
47022;DHT22;32779;52.264;6.154;2023-04-03T05:13:14;1.00;99.90
47022;DHT22;32779;52.264;6.154;2023-04-03T05:15:40;0.90;99.90
47022;DHT22;32779;52.264;6.154;2023-04-03T05:18:06;0.90;99.90
47022;DHT22;32779;52.264;6.154;2023-04-03T05:20:32;0.90;99.90
47022;DHT22;32779;52.264;6.154;2023-04-03T05:22:57;0.90;99.90
47022;DHT22;32779;52.264;6.154;2023-04-03T05:25:23;0.90;99.90
47022;DHT22;32779;52.264;6.154;2023-04-03T05:27:49;0.80;99.90
47022;DHT22;32779;52.264;6.154;2023-04-03T05:30:15;0.80;99.90
47022;DHT22;32779;52.264;6.154;2023-04-03T05:32:41;0.80;99.90
47022;DHT22;32779;52.264;6.154;2023-04-03T05:35:07;0.80;99.90
47022;DHT22;32779;52.264;6.154;2023-04-03T05:37:33;0.80;99.90
47022;DHT22;32779;52.264;6.154;2023-04-03T05:39:58;0.80;99.90
47022;DHT22;32779;52.264;6.154;2023-04-03T05:42:24;0.80;99.90
47022;DHT22;32779;52.264;6.154;2023-04-03T05:44:50;0.80;99.90
47022;DHT22;32779;52.264;6.154;2023-04-03T05:47:17;0.80;99.90
47022;DHT22;32779;52.264;6.154;2023-04-03T05:49:42;0.90;99.90
47022;DHT22;32779;52.264;6.154;2023-04-03T05:52:35;1.00;99.90
47022;DHT22;32779;52.264;6.154;2023-04-03T05:55:01;1.00;99.90
47022;DHT22;32779;52.264;6.154;2023-04-03T05:57:27;1.20;99.90
47022;DHT22;32779;52.264;6.154;2023-04-03T05:59:52;1.40;99.90
47022;DHT22;32779;52.264;6.154;2023-04-03T06:02:22;1.60;99.90
47022;DHT22;32779;52.264;6.154;2023-04-03T06:04:48;1.80;99.90
47022;DHT22;32779;52.264;6.154;2023-04-03T06:07:22;2.00;99.90
47022;DHT22;32779;52.264;6.154;2023-04-03T06:09:52;2.20;99.90
47022;DHT22;32779;52.264;6.154;2023-04-03T06:12:18;2.30;99.90
47022;DHT22;32779;52.264;6.154;2023-04-03T06:14:44;2.40;99.90
47022;DHT22;32779;52.264;6.154;2023-04-03T06:17:10;2.50;99.90
47022;DHT22;32779;52.264;6.154;2023-04-03T06:19:37;2.70;99.90
47022;DHT22;32779;52.264;6.154;2023-04-03T06:22:03;2.80;99.90
47022;DHT22;32779;52.264;6.154;2023-04-03T06:24:29;2.90;99.90
47022;DHT22;32779;52.264;6.154;2023-04-03T06:26:55;3.00;99.90
47022;DHT22;32779;52.264;6.154;2023-04-03T06:29:21;3.10;99.90
47022;DHT22;32779;52.264;6.154;2023-04-03T06:31:47;3.20;99.90
47022;DHT22;32779;52.264;6.154;2023-04-03T06:34:13;3.30;99.90
47022;DHT22;32779;52.264;6.154;2023-04-03T06:36:39;3.30;99.90
47022;DHT22;32779;52.264;6.154;2023-04-03T06:39:05;3.30;99.90
47022;DHT22;32779;52.264;6.154;2023-04-03T06:41:32;3.40;99.90
47022;DHT22;32779;52.264;6.154;2023-04-03T06:43:58;3.50;99.90
47022;DHT22;32779;52.264;6.154;2023-04-03T06:46:25;3.60;99.90
47022;DHT22;32779;52.264;6.154;2023-04-03T06:48:51;3.70;99.90
47022;DHT22;32779;52.264;6.154;2023-04-03T06:53:43;3.60;99.90
47022;DHT22;32779;52.264;6.154;2023-04-03T06:56:08;3.70;99.90
47022;DHT22;32779;52.264;6.154;2023-04-03T06:58:34;3.80;99.90
47022;DHT22;32779;52.264;6.154;2023-04-03T07:00:59;3.80;99.90
47022;DHT22;32779;52.264;6.154;2023-04-03T07:03:25;3.80;99.90
47022;DHT22;32779;52.264;6.154;2023-04-03T07:05:51;4.00;99.90
47022;DHT22;32779;52.264;6.154;2023-04-03T07:08:16;4.00;99.90
47022;DHT22;32779;52.264;6.154;2023-04-03T07:10:42;3.90;99.90
47022;DHT22;32779;52.264;6.154;2023-04-03T07:13:07;4.10;99.90
47022;DHT22;32779;52.264;6.154;2023-04-03T07:15:33;4.20;99.90
47022;DHT22;32779;52.264;6.154;2023-04-03T07:17:58;4.20;99.90
47022;DHT22;32779;52.264;6.154;2023-04-03T07:20:24;4.20;99.90
47022;DHT22;32779;52.264;6.154;2023-04-03T07:22:50;4.30;99.90
47022;DHT22;32779;52.264;6.154;2023-04-03T07:25:16;4.50;99.90
47022;DHT22;32779;52.264;6.154;2023-04-03T07:27:42;4.60;99.90
47022;DHT22;32779;52.264;6.154;2023-04-03T07:30:08;4.60;99.90
47022;DHT22;32779;52.264;6.154;2023-04-03T07:32:34;4.60;99.90
47022;DHT22;32779;52.264;6.154;2023-04-03T07:35:02;4.70;99.90
47022;DHT22;32779;52.264;6.154;2023-04-03T07:37:28;4.80;99.90
47022;DHT22;32779;52.264;6.154;2023-04-03T07:39:54;4.70;99.90
47022;DHT22;32779;52.264;6.154;2023-04-03T07:42:20;4.60;99.90
47022;DHT22;32779;52.264;6.154;2023-04-03T07:44:46;4.70;99.90
47022;DHT22;32779;52.264;6.154;2023-04-03T07:47:12;4.80;99.90
47022;DHT22;32779;52.264;6.154;2023-04-03T07:49:39;4.90;99.90
47022;DHT22;32779;52.264;6.154;2023-04-03T07:52:06;5.00;99.90
47022;DHT22;32779;52.264;6.154;2023-04-03T07:54:33;5.20;99.90
47022;DHT22;32779;52.264;6.154;2023-04-03T07:56:59;5.20;99.90
47022;DHT22;32779;52.264;6.154;2023-04-03T07:59:25;5.20;99.90
47022;DHT22;32779;52.264;6.154;2023-04-03T08:01:51;5.30;99.90
47022;DHT22;32779;52.264;6.154;2023-04-03T08:04:16;5.30;99.60
47022;DHT22;32779;52.264;6.154;2023-04-03T08:06:42;5.40;99.50
47022;DHT22;32779;52.264;6.154;2023-04-03T08:09:08;5.40;99.40
47022;DHT22;32779;52.264;6.154;2023-04-03T08:11:33;5.40;99.20
47022;DHT22;32779;52.264;6.154;2023-04-03T08:13:59;5.40;98.90
47022;DHT22;32779;52.264;6.154;2023-04-03T08:16:25;5.50;98.40
47022;DHT22;32779;52.264;6.154;2023-04-03T08:18:52;5.30;97.90
47022;DHT22;32779;52.264;6.154;2023-04-03T08:21:18;5.30;98.60
47022;DHT22;32779;52.264;6.154;2023-04-03T08:23:43;5.50;99.00
47022;DHT22;32779;52.264;6.154;2023-04-03T08:26:14;5.60;97.20
47022;DHT22;32779;52.264;6.154;2023-04-03T08:28:40;5.80;98.00
47022;DHT22;32779;52.264;6.154;2023-04-03T08:31:07;5.90;97.20
47022;DHT22;32779;52.264;6.154;2023-04-03T08:33:36;5.80;97.20
47022;DHT22;32779;52.264;6.154;2023-04-03T08:36:03;5.80;97.00
47022;DHT22;32779;52.264;6.154;2023-04-03T08:38:29;5.80;96.50
47022;DHT22;32779;52.264;6.154;2023-04-03T08:43:55;6.20;97.00
47022;DHT22;32779;52.264;6.154;2023-04-03T08:46:26;6.30;96.30
47022;DHT22;32779;52.264;6.154;2023-04-03T08:48:58;6.30;95.50
47022;DHT22;32779;52.264;6.154;2023-04-03T08:51:26;6.10;94.60
47022;DHT22;32779;52.264;6.154;2023-04-03T08:54:00;6.20;95.10
47022;DHT22;32779;52.264;6.154;2023-04-03T08:56:27;6.30;96.20
47022;DHT22;32779;52.264;6.154;2023-04-03T08:59:00;6.40;94.50
47022;DHT22;32779;52.264;6.154;2023-04-03T09:01:38;6.30;94.30
47022;DHT22;32779;52.264;6.154;2023-04-03T09:04:15;6.30;95.00
47022;DHT22;32779;52.264;6.154;2023-04-03T09:06:45;6.30;93.10
47022;DHT22;32779;52.264;6.154;2023-04-03T09:12:39;6.20;92.90
47022;DHT22;32779;52.264;6.154;2023-04-03T09:20:36;6.40;91.80
47022;DHT22;32779;52.264;6.154;2023-04-03T09:26:02;6.60;90.30
47022;DHT22;32779;52.264;6.154;2023-04-03T09:28:33;6.60;90.80
47022;DHT22;32779;52.264;6.154;2023-04-03T09:31:00;6.60;91.10
47022;DHT22;32779;52.264;6.154;2023-04-03T09:33:27;6.60;90.60
47022;DHT22;32779;52.264;6.154;2023-04-03T09:35:54;6.60;90.60
47022;DHT22;32779;52.264;6.154;2023-04-03T09:38:21;6.60;90.00
47022;DHT22;32779;52.264;6.154;2023-04-03T09:40:49;6.70;87.00
47022;DHT22;32779;52.264;6.154;2023-04-03T09:43:24;6.70;89.70
47022;DHT22;32779;52.264;6.154;2023-04-03T09:45:51;6.80;88.00
47022;DHT22;32779;52.264;6.154;2023-04-03T09:48:20;6.80;89.60
47022;DHT22;32779;52.264;6.154;2023-04-03T09:53:42;6.70;85.90
47022;DHT22;32779;52.264;6.154;2023-04-03T10:06:50;7.00;85.30
47022;DHT22;32779;52.264;6.154;2023-04-03T10:09:31;7.10;87.60
47022;DHT22;32779;52.264;6.154;2023-04-03T10:14:34;7.20;85.20
47022;DHT22;32779;52.264;6.154;2023-04-03T10:19:46;7.20;82.30
47022;DHT22;32779;52.264;6.154;2023-04-03T10:25:27;7.20;84.60
47022;DHT22;32779;52.264;6.154;2023-04-03T10:36:42;7.50;83.10
47022;DHT22;32779;52.264;6.154;2023-04-03T10:45:15;7.50;82.90
47022;DHT22;32779;52.264;6.154;2023-04-03T10:50:52;7.50;83.10
47022;DHT22;32779;52.264;6.154;2023-04-03T10:59:25;7.70;82.00
47022;DHT22;32779;52.264;6.154;2023-04-03T11:01:56;7.70;82.10
47022;DHT22;32779;52.264;6.154;2023-04-03T11:04:25;7.60;80.40
47022;DHT22;32779;52.264;6.154;2023-04-03T11:07:00;7.60;83.80
47022;DHT22;32779;52.264;6.154;2023-04-03T11:09:29;7.70;84.00
47022;DHT22;32779;52.264;6.154;2023-04-03T11:12:03;7.90;84.40
47022;DHT22;32779;52.264;6.154;2023-04-03T11:14:35;8.00;82.00
47022;DHT22;32779;52.264;6.154;2023-04-03T11:22:41;8.10;82.50
47022;DHT22;32779;52.264;6.154;2023-04-03T11:27:47;8.00;80.80
47022;DHT22;32779;52.264;6.154;2023-04-03T11:30:30;8.10;82.10
47022;DHT22;32779;52.264;6.154;2023-04-03T11:35:45;8.10;81.40
47022;DHT22;32779;52.264;6.154;2023-04-03T11:38:19;8.10;82.50
47022;DHT22;32779;52.264;6.154;2023-04-03T11:40:47;8.20;82.70
47022;DHT22;32779;52.264;6.154;2023-04-03T11:46:00;8.30;82.60
47022;DHT22;32779;52.264;6.154;2023-04-03T11:53:38;8.30;83.50
47022;DHT22;32779;52.264;6.154;2023-04-03T12:01:56;8.50;81.50
47022;DHT22;32779;52.264;6.154;2023-04-03T12:04:25;8.50;83.70
47022;DHT22;32779;52.264;6.154;2023-04-03T12:07:00;8.60;83.40
47022;DHT22;32779;52.264;6.154;2023-04-03T12:14:51;8.40;85.10
47022;DHT22;32779;52.264;6.154;2023-04-03T12:17:26;8.40;84.60
47022;DHT22;32779;52.264;6.154;2023-04-03T12:19:52;8.50;83.90
47022;DHT22;32779;52.264;6.154;2023-04-03T12:22:19;8.40;84.10
47022;DHT22;32779;52.264;6.154;2023-04-03T12:24:50;8.40;84.50
47022;DHT22;32779;52.264;6.154;2023-04-03T12:27:40;8.30;84.90
47022;DHT22;32779;52.264;6.154;2023-04-03T12:30:18;8.40;85.00
47022;DHT22;32779;52.264;6.154;2023-04-03T12:32:48;8.50;84.50
47022;DHT22;32779;52.264;6.154;2023-04-03T12:35:20;8.50;84.20
47022;DHT22;32779;52.264;6.154;2023-04-03T12:46:12;8.60;84.60
47022;DHT22;32779;52.264;6.154;2023-04-03T12:48:56;8.70;85.20
47022;DHT22;32779;52.264;6.154;2023-04-03T12:51:38;8.70;81.60
47022;DHT22;32779;52.264;6.154;2023-04-03T12:56:42;8.50;83.50
47022;DHT22;32779;52.264;6.154;2023-04-03T13:01:42;8.60;84.90
47022;DHT22;32779;52.264;6.154;2023-04-03T13:04:10;8.60;84.20
47022;DHT22;32779;52.264;6.154;2023-04-03T13:06:42;8.60;84.70
47022;DHT22;32779;52.264;6.154;2023-04-03T13:09:29;8.50;84.50
47022;DHT22;32779;52.264;6.154;2023-04-03T13:12:02;8.50;84.90
47022;DHT22;32779;52.264;6.154;2023-04-03T13:14:29;8.40;85.90
47022;DHT22;32779;52.264;6.154;2023-04-03T13:16:59;8.50;85.40
47022;DHT22;32779;52.264;6.154;2023-04-03T13:19:27;8.50;85.70
47022;DHT22;32779;52.264;6.154;2023-04-03T13:22:01;8.50;85.20
47022;DHT22;32779;52.264;6.154;2023-04-03T13:24:29;8.60;87.40
47022;DHT22;32779;52.264;6.154;2023-04-03T13:26:56;8.70;86.80
47022;DHT22;32779;52.264;6.154;2023-04-03T13:29:33;8.70;88.20
47022;DHT22;32779;52.264;6.154;2023-04-03T13:31:59;8.60;85.10
47022;DHT22;32779;52.264;6.154;2023-04-03T13:34:28;8.60;85.70
47022;DHT22;32779;52.264;6.154;2023-04-03T13:36:59;8.60;86.20
47022;DHT22;32779;52.264;6.154;2023-04-03T13:39:31;8.50;85.80
47022;DHT22;32779;52.264;6.154;2023-04-03T13:42:21;8.60;86.40
47022;DHT22;32779;52.264;6.154;2023-04-03T13:44:47;8.50;85.50
47022;DHT22;32779;52.264;6.154;2023-04-03T13:47:21;8.40;87.10
47022;DHT22;32779;52.264;6.154;2023-04-03T13:50:11;8.40;87.20
47022;DHT22;32779;52.264;6.154;2023-04-03T13:52:45;8.40;86.70
47022;DHT22;32779;52.264;6.154;2023-04-03T13:55:27;8.50;86.90
47022;DHT22;32779;52.264;6.154;2023-04-03T14:03:29;8.40;86.60
47022;DHT22;32779;52.264;6.154;2023-04-03T14:05:55;8.40;88.30
47022;DHT22;32779;52.264;6.154;2023-04-03T14:08:21;8.40;88.70
47022;DHT22;32779;52.264;6.154;2023-04-03T14:10:47;8.50;89.00
47022;DHT22;32779;52.264;6.154;2023-04-03T14:13:16;8.50;89.00
47022;DHT22;32779;52.264;6.154;2023-04-03T14:15:42;8.60;90.10
47022;DHT22;32779;52.264;6.154;2023-04-03T14:18:13;8.60;89.60
47022;DHT22;32779;52.264;6.154;2023-04-03T14:20:39;8.60;88.90
47022;DHT22;32779;52.264;6.154;2023-04-03T14:23:05;8.60;88.40
47022;DHT22;32779;52.264;6.154;2023-04-03T14:25:31;8.60;87.70
47022;DHT22;32779;52.264;6.154;2023-04-03T14:27:57;8.50;87.50
47022;DHT22;32779;52.264;6.154;2023-04-03T14:30:29;8.40;88.20
47022;DHT22;32779;52.264;6.154;2023-04-03T14:32:55;8.40;88.00
47022;DHT22;32779;52.264;6.154;2023-04-03T14:35:22;8.50;88.00
47022;DHT22;32779;52.264;6.154;2023-04-03T14:37:48;8.50;89.20
47022;DHT22;32779;52.264;6.154;2023-04-03T14:40:18;8.50;89.30
47022;DHT22;32779;52.264;6.154;2023-04-03T14:42:44;8.50;89.50
47022;DHT22;32779;52.264;6.154;2023-04-03T14:45:12;8.70;90.00
47022;DHT22;32779;52.264;6.154;2023-04-03T14:47:47;8.80;89.40
47022;DHT22;32779;52.264;6.154;2023-04-03T14:50:16;8.70;88.50
47022;DHT22;32779;52.264;6.154;2023-04-03T14:52:42;8.70;88.00
47022;DHT22;32779;52.264;6.154;2023-04-03T14:55:08;8.60;87.30
47022;DHT22;32779;52.264;6.154;2023-04-03T14:57:34;8.60;88.60
47022;DHT22;32779;52.264;6.154;2023-04-03T15:00:00;8.40;87.80
47022;DHT22;32779;52.264;6.154;2023-04-03T15:02:32;8.40;87.50
47022;DHT22;32779;52.264;6.154;2023-04-03T15:04:58;8.40;88.90
47022;DHT22;32779;52.264;6.154;2023-04-03T15:07:27;8.40;88.50
47022;DHT22;32779;52.264;6.154;2023-04-03T15:09:54;8.30;87.80
47022;DHT22;32779;52.264;6.154;2023-04-03T15:12:23;8.30;89.00
47022;DHT22;32779;52.264;6.154;2023-04-03T15:14:49;8.40;88.00
47022;DHT22;32779;52.264;6.154;2023-04-03T15:17:19;8.40;89.30
47022;DHT22;32779;52.264;6.154;2023-04-03T15:19:46;8.50;88.40
47022;DHT22;32779;52.264;6.154;2023-04-03T15:22:17;8.50;88.10
47022;DHT22;32779;52.264;6.154;2023-04-03T15:24:44;8.50;86.90
47022;DHT22;32779;52.264;6.154;2023-04-03T15:27:11;8.40;86.90
47022;DHT22;32779;52.264;6.154;2023-04-03T15:29:38;8.40;88.00
47022;DHT22;32779;52.264;6.154;2023-04-03T15:32:05;8.50;90.00
47022;DHT22;32779;52.264;6.154;2023-04-03T15:34:31;8.50;89.50
47022;DHT22;32779;52.264;6.154;2023-04-03T15:36:57;8.50;88.10
47022;DHT22;32779;52.264;6.154;2023-04-03T15:39:24;8.40;88.00
47022;DHT22;32779;52.264;6.154;2023-04-03T15:41:51;8.40;88.50
47022;DHT22;32779;52.264;6.154;2023-04-03T15:44:18;8.40;90.20
47022;DHT22;32779;52.264;6.154;2023-04-03T15:46:45;8.40;89.60
47022;DHT22;32779;52.264;6.154;2023-04-03T15:49:11;8.40;90.30
47022;DHT22;32779;52.264;6.154;2023-04-03T15:51:37;8.40;89.30
47022;DHT22;32779;52.264;6.154;2023-04-03T15:54:03;8.30;89.20
47022;DHT22;32779;52.264;6.154;2023-04-03T15:56:29;8.40;89.90
47022;DHT22;32779;52.264;6.154;2023-04-03T15:58:55;8.40;89.30
47022;DHT22;32779;52.264;6.154;2023-04-03T16:01:21;8.40;89.10
47022;DHT22;32779;52.264;6.154;2023-04-03T16:03:46;8.30;88.90
47022;DHT22;32779;52.264;6.154;2023-04-03T16:06:14;8.30;90.40
47022;DHT22;32779;52.264;6.154;2023-04-03T16:08:41;8.30;90.40
47022;DHT22;32779;52.264;6.154;2023-04-03T16:11:07;8.40;90.00
47022;DHT22;32779;52.264;6.154;2023-04-03T16:13:32;8.30;88.80
47022;DHT22;32779;52.264;6.154;2023-04-03T16:15:59;8.30;89.70
47022;DHT22;32779;52.264;6.154;2023-04-03T16:18:25;8.20;90.00
47022;DHT22;32779;52.264;6.154;2023-04-03T16:20:51;8.20;90.10
47022;DHT22;32779;52.264;6.154;2023-04-03T16:23:17;8.30;90.50
47022;DHT22;32779;52.264;6.154;2023-04-03T16:25:42;8.20;90.50
47022;DHT22;32779;52.264;6.154;2023-04-03T16:28:12;8.20;90.20
47022;DHT22;32779;52.264;6.154;2023-04-03T16:30:42;8.20;90.00
47022;DHT22;32779;52.264;6.154;2023-04-03T16:33:09;8.10;90.20
47022;DHT22;32779;52.264;6.154;2023-04-03T16:35:35;8.10;90.20
47022;DHT22;32779;52.264;6.154;2023-04-03T16:38:01;8.10;90.50
47022;DHT22;32779;52.264;6.154;2023-04-03T16:40:26;8.10;90.20
47022;DHT22;32779;52.264;6.154;2023-04-03T16:42:52;8.10;90.10
47022;DHT22;32779;52.264;6.154;2023-04-03T16:45:17;8.00;89.70
47022;DHT22;32779;52.264;6.154;2023-04-03T16:47:43;8.00;90.50
47022;DHT22;32779;52.264;6.154;2023-04-03T16:50:09;8.00;90.50
47022;DHT22;32779;52.264;6.154;2023-04-03T16:52:35;8.00;90.40
47022;DHT22;32779;52.264;6.154;2023-04-03T16:55:00;8.00;90.90
47022;DHT22;32779;52.264;6.154;2023-04-03T16:57:26;8.00;90.60
47022;DHT22;32779;52.264;6.154;2023-04-03T16:59:52;8.00;90.60
47022;DHT22;32779;52.264;6.154;2023-04-03T17:02:19;8.00;90.80
47022;DHT22;32779;52.264;6.154;2023-04-03T17:04:46;8.00;90.80
47022;DHT22;32779;52.264;6.154;2023-04-03T17:07:11;8.00;90.30
47022;DHT22;32779;52.264;6.154;2023-04-03T17:09:37;8.00;90.40
47022;DHT22;32779;52.264;6.154;2023-04-03T17:12:03;8.00;91.00
47022;DHT22;32779;52.264;6.154;2023-04-03T17:14:29;7.90;90.40
47022;DHT22;32779;52.264;6.154;2023-04-03T17:16:54;7.90;90.60
47022;DHT22;32779;52.264;6.154;2023-04-03T17:19:20;7.90;90.80
47022;DHT22;32779;52.264;6.154;2023-04-03T17:21:46;7.90;90.50
47022;DHT22;32779;52.264;6.154;2023-04-03T17:24:13;7.90;90.80
47022;DHT22;32779;52.264;6.154;2023-04-03T17:26:40;7.80;90.80
47022;DHT22;32779;52.264;6.154;2023-04-03T17:29:06;7.80;90.70
47022;DHT22;32779;52.264;6.154;2023-04-03T17:31:32;7.80;90.50
47022;DHT22;32779;52.264;6.154;2023-04-03T17:33:58;7.70;90.50
47022;DHT22;32779;52.264;6.154;2023-04-03T17:36:30;7.70;90.70
47022;DHT22;32779;52.264;6.154;2023-04-03T17:38:56;7.70;90.80
47022;DHT22;32779;52.264;6.154;2023-04-03T17:41:22;7.60;91.10
47022;DHT22;32779;52.264;6.154;2023-04-03T17:43:47;7.60;91.40
47022;DHT22;32779;52.264;6.154;2023-04-03T17:46:13;7.60;91.10